Terminal Aerodrome Forecast
Issued by NWS

Home | Current Version | Previous Version | Graphics & Text | Print | Product List | Glossary On
Versions: 1 2 3 4 5 6 7 8 9 10 11 12 13 14 15 16 17 18 19 20 21 22 23
000
FTUS43 KLSX 261900 AAA
TAFSUS
TAF AMD
KSUS 261939Z 2620/2718 33012G20KT 6SM -SN BKN015 OVC030
      TEMPO 2620/2621 5SM -SN
     FM262100 33012KT P6SM BKN015
     FM270600 33008KT P6SM SCT020=

USA.gov is the U.S. government's official web portal to all federal, state and local government web resources and services.